< Cyclone 201129 2012 Season Cyclone 201202 >
Cyclone 201201 (Alenga)
General InformationTrack Information on Google MapsDetailed Wind InformationList of All Images || ResourceGoogle EarthGE AnimationAtom FeedGeoJSON
Detalied Best Track (Time Zone = UTC)
Year Month Day Hour Lat. Long. Pressure (hPa) Wind (kt) Class Image Chart
2011 12 2 00 -5.4 98.4 1006 15 2 Image --
2011 12 2 06 -6.9 98.1 1006 15 2 Image --
2011 12 2 12 -7.3 97.7 1006 15 2 Image --
2011 12 2 18 -7.6 97.4 1005 20 2 Image --
2011 12 3 00 -8.1 97.0 1004 20 2 Image --
2011 12 3 06 -8.8 96.3 1004 20 2 Image --
2011 12 3 12 -9.6 95.3 1004 20 2 Image --
2011 12 3 18 -10.4 93.7 1004 20 2 Image --
2011 12 4 00 -11.1 92.3 1002 25 2 Image --
2011 12 4 06 -11.6 91.0 1001 27 2 Image --
2011 12 4 12 -12.0 89.9 1001 27 2 Image --
2011 12 4 18 -12.0 88.9 999 33 2 Image --
2011 12 5 00 -12.1 88.1 997 40 3 Image --
2011 12 5 06 -12.1 87.7 996 42 3 Image --
2011 12 5 12 -12.1 87.6 995 42 3 Image --
2011 12 5 18 -12.3 87.6 994 45 3 Image --
2011 12 6 00 -12.6 87.7 995 40 3 Image --
2011 12 6 06 -13.0 87.6 996 37 3 Image --
2011 12 6 12 -13.4 87.9 997 35 3 Image --
2011 12 6 18 -13.6 88.3 997 35 3 Image --
2011 12 7 00 -13.9 89.3 993 45 3 Image --
2011 12 7 06 -14.2 89.9 986 55 4 Image --
2011 12 7 12 -14.7 91.6 985 60 4 Image --
2011 12 7 18 -15.4 93.3 981 65 5 Image --
2011 12 8 00 -16.1 94.9 975 70 5 Image --
2011 12 8 06 -17.2 96.8 972 75 5 Image --
2011 12 8 12 -18.4 98.4 973 70 5 Image --
2011 12 8 18 -19.1 99.7 980 60 4 Image --
2011 12 9 00 -20.5 101.6 995 40 3 Image --
2011 12 9 06 -21.1 102.4 995 30 2 Image --
< Cyclone 201129 2012 Season Cyclone 201202 >

Help